Time;durP1;ratioP1;P1;durP2;ratioP2;P2;SDS_P1;SDS_P2;PMS_P1;PMS_P2;Temp;Humidity;BMP_temperature;BMP_pressure;BME280_temperature;BME280_humidity;BME280_pressure;Samples;Min_cycle;Max_cycle;Signal;HPM_P1;HPM_P2
2021/06/04 00:05:31;;;;;;;36.35;18.95;;;;;;;;;;4936748;28;20031;-61
2021/06/04 00:08:06;;;;;;;37.58;20.00;;;;;;;;;;4959418;28;20039;-60
2021/06/04 00:10:34;;;;;;;36.13;19.30;;;;;;;;;;4945142;28;20055;-61
2021/06/04 00:13:18;;;;;;;33.92;20.05;;;;;;;;;;4946604;28;22122;-60
2021/06/04 00:15:47;;;;;;;38.50;19.52;;;;;;;;;;4943151;28;20023;-59
2021/06/04 00:18:12;;;;;;;37.10;20.73;;;;;;;;;;4944420;28;20039;-61
2021/06/04 00:20:38;;;;;;;36.83;19.95;;;;;;;;;;4958191;28;20959;-62
2021/06/04 00:23:04;;;;;;;35.28;19.90;;;;;;;;;;4945368;28;20041;-60
2021/06/04 00:25:30;;;;;;;38.53;20.77;;;;;;;;;;4946974;28;20034;-60
2021/06/04 00:27:55;;;;;;;36.53;19.70;;;;;;;;;;4943937;28;21964;-60
2021/06/04 00:30:23;;;;;;;41.15;20.10;;;;;;;;;;4945528;28;20026;-60
2021/06/04 00:32:48;;;;;;;39.20;20.85;;;;;;;;;;4944318;28;20046;-59
2021/06/04 00:35:14;;;;;;;34.20;19.55;;;;;;;;;;4946167;28;20033;-61
2021/06/04 00:37:43;;;;;;;37.33;20.35;;;;;;;;;;4946323;28;20505;-60
2021/06/04 00:40:12;;;;;;;43.65;22.05;;;;;;;;;;4946073;28;20042;-59
2021/06/04 00:42:40;;;;;;;33.60;19.42;;;;;;;;;;4942408;28;20070;-60
2021/06/04 00:45:10;;;;;;;36.20;18.50;;;;;;;;;;4944671;28;20043;-60
2021/06/04 00:47:37;;;;;;;35.58;19.85;;;;;;;;;;4945078;28;20075;-60
2021/06/04 00:50:04;;;;;;;38.28;20.60;;;;;;;;;;4944365;28;20121;-61
2021/06/04 00:52:35;;;;;;;39.33;20.27;;;;;;;;;;4945116;28;20027;-60
2021/06/04 00:55:01;;;;;;;35.97;19.33;;;;;;;;;;4945738;28;20038;-60
2021/06/04 00:57:28;;;;;;;34.70;20.35;;;;;;;;;;4944886;28;20030;-60
2021/06/04 01:00:03;;;;;;;35.42;19.10;;;;;;;;;;4951641;28;20478;-60
2021/06/04 01:02:30;;;;;;;42.13;19.33;;;;;;;;;;4964314;28;20030;-59
2021/06/04 01:04:56;;;;;;;30.40;18.55;;;;;;;;;;4964512;28;20612;-61
2021/06/04 01:07:32;;;;;;;36.03;18.70;;;;;;;;;;4949220;28;20081;-60
2021/06/04 01:10:23;;;;;;;32.13;17.70;;;;;;;;;;4964124;28;20540;-60
2021/06/04 01:12:56;;;;;;;35.85;19.73;;;;;;;;;;4947696;28;20038;-60
2021/06/04 01:15:27;;;;;;;32.05;18.35;;;;;;;;;;4947395;28;20447;-59
2021/06/04 01:17:52;;;;;;;38.90;20.17;;;;;;;;;;4932808;28;20169;-60
2021/06/04 01:20:20;;;;;;;38.72;19.38;;;;;;;;;;4962990;28;20077;-60
2021/06/04 01:22:57;;;;;;;30.05;17.95;;;;;;;;;;4961275;28;20039;-61
2021/06/04 01:25:57;;;;;;;35.85;19.63;;;;;;;;;;4958350;28;20042;-59
2021/06/04 01:28:22;;;;;;;30.60;16.77;;;;;;;;;;4945404;28;20040;-59
2021/06/04 01:30:51;;;;;;;36.40;17.13;;;;;;;;;;4947730;28;20034;-59
2021/06/04 01:33:18;;;;;;;34.45;19.58;;;;;;;;;;4963839;28;20045;-61
2021/06/04 01:35:47;;;;;;;35.28;18.85;;;;;;;;;;4948441;28;20042;-59
2021/06/04 01:38:18;;;;;;;36.33;17.98;;;;;;;;;;4961783;28;20062;-60
2021/06/04 01:40:46;;;;;;;34.38;18.08;;;;;;;;;;4931823;28;20049;-59
2021/06/04 01:43:23;;;;;;;40.40;20.23;;;;;;;;;;4943993;28;20034;-60
2021/06/04 01:45:56;;;;;;;35.15;19.77;;;;;;;;;;4964874;28;20041;-60
2021/06/04 01:48:24;;;;;;;32.55;18.60;;;;;;;;;;4951235;28;20051;-60
2021/06/04 01:50:56;;;;;;;34.80;18.02;;;;;;;;;;4962103;28;20034;-60
2021/06/04 01:53:25;;;;;;;38.55;20.10;;;;;;;;;;4956576;28;20022;-60
2021/06/04 01:55:53;;;;;;;38.50;18.67;;;;;;;;;;4958772;28;20746;-59
2021/06/04 01:58:28;;;;;;;34.22;17.95;;;;;;;;;;4947242;28;20058;-59
2021/06/04 02:00:57;;;;;;;34.92;17.58;;;;;;;;;;4964914;28;20054;-59
2021/06/04 02:03:23;;;;;;;34.03;18.83;;;;;;;;;;4951787;28;20022;-59
2021/06/04 02:05:52;;;;;;;38.50;17.88;;;;;;;;;;4947353;28;20030;-61
2021/06/04 02:08:20;;;;;;;33.90;16.33;;;;;;;;;;4946438;28;20033;-61
2021/06/04 02:10:47;;;;;;;31.73;16.17;;;;;;;;;;4963003;28;20046;-60
2021/06/04 02:13:13;;;;;;;35.53;16.20;;;;;;;;;;4961832;28;20176;-60
2021/06/04 02:15:41;;;;;;;29.52;15.27;;;;;;;;;;4964584;28;20058;-60
2021/06/04 02:18:27;;;;;;;30.35;15.60;;;;;;;;;;4932322;28;20812;-61
2021/06/04 02:21:11;;;;;;;31.92;15.25;;;;;;;;;;4932690;28;20047;-60
2021/06/04 02:23:44;;;;;;;23.73;14.50;;;;;;;;;;4946362;28;20038;-59
2021/06/04 02:26:12;;;;;;;28.50;15.23;;;;;;;;;;4962274;28;20045;-60
2021/06/04 02:28:41;;;;;;;30.02;15.07;;;;;;;;;;4964124;28;20034;-59
2021/06/04 02:31:17;;;;;;;29.85;14.90;;;;;;;;;;4962712;28;20498;-60
2021/06/04 02:34:08;;;;;;;29.98;15.35;;;;;;;;;;4962300;28;20682;-60
2021/06/04 02:36:45;;;;;;;29.52;15.85;;;;;;;;;;4951974;28;20065;-60
2021/06/04 02:39:11;;;;;;;35.38;17.50;;;;;;;;;;4965447;28;20030;-59
2021/06/04 02:41:38;;;;;;;42.25;18.02;;;;;;;;;;4946624;28;20183;-60
2021/06/04 02:44:12;;;;;;;33.50;18.30;;;;;;;;;;4960654;28;20050;-59
2021/06/04 02:46:42;;;;;;;34.30;17.10;;;;;;;;;;4946815;28;20034;-59
2021/06/04 02:49:08;;;;;;;38.47;18.92;;;;;;;;;;4962518;28;20050;-61
2021/06/04 02:51:40;;;;;;;32.33;16.05;;;;;;;;;;4961056;28;20022;-59
2021/06/04 02:54:12;;;;;;;35.45;17.30;;;;;;;;;;4930107;28;20026;-59
2021/06/04 02:56:40;;;;;;;30.77;14.95;;;;;;;;;;4947544;28;20068;-60
2021/06/04 02:59:13;;;;;;;32.30;17.02;;;;;;;;;;4964096;28;21316;-59
2021/06/04 03:01:43;;;;;;;34.55;16.85;;;;;;;;;;4944050;28;20042;-59
2021/06/04 03:04:09;;;;;;;33.55;16.52;;;;;;;;;;4940000;28;20039;-59
2021/06/04 03:06:39;;;;;;;38.35;17.63;;;;;;;;;;4945283;28;20563;-60
2021/06/04 03:09:06;;;;;;;42.47;17.98;;;;;;;;;;4933419;28;20071;-60
2021/06/04 03:11:32;;;;;;;36.08;18.48;;;;;;;;;;4944568;28;20668;-59
2021/06/04 03:14:00;;;;;;;33.45;15.63;;;;;;;;;;4943274;28;20487;-60
2021/06/04 03:16:26;;;;;;;29.77;16.13;;;;;;;;;;4948781;28;20034;-60
2021/06/04 03:18:54;;;;;;;34.20;15.75;;;;;;;;;;4945300;28;20042;-60
2021/06/04 03:21:32;;;;;;;31.10;16.05;;;;;;;;;;4948448;28;20031;-59
2021/06/04 03:23:59;;;;;;;35.97;17.58;;;;;;;;;;4946243;28;20042;-59
2021/06/04 03:26:26;;;;;;;33.13;16.75;;;;;;;;;;4948404;28;20050;-59
2021/06/04 03:28:53;;;;;;;39.13;19.15;;;;;;;;;;4954635;28;20145;-61
2021/06/04 03:31:19;;;;;;;36.97;18.27;;;;;;;;;;4947230;28;20037;-59
2021/06/04 03:33:45;;;;;;;37.25;17.15;;;;;;;;;;4946903;28;20114;-59
2021/06/04 03:36:14;;;;;;;35.13;16.65;;;;;;;;;;4947769;28;20038;-60
2021/06/04 03:38:42;;;;;;;34.97;17.63;;;;;;;;;;4945746;28;20129;-59
2021/06/04 03:41:08;;;;;;;41.55;17.35;;;;;;;;;;4947379;28;20043;-59
2021/06/04 03:43:36;;;;;;;36.08;17.98;;;;;;;;;;4946127;28;20043;-60
2021/06/04 03:46:02;;;;;;;40.03;18.52;;;;;;;;;;4961135;28;20101;-59
2021/06/04 03:48:30;;;;;;;38.45;19.02;;;;;;;;;;4961435;28;20094;-58
2021/06/04 03:50:59;;;;;;;39.25;19.65;;;;;;;;;;4954587;28;20031;-60
2021/06/04 03:53:25;;;;;;;39.33;19.30;;;;;;;;;;4945120;28;20019;-60
2021/06/04 03:55:51;;;;;;;46.10;19.15;;;;;;;;;;4950221;28;20561;-60
2021/06/04 03:58:18;;;;;;;41.53;19.77;;;;;;;;;;4963201;28;20069;-59
2021/06/04 04:00:48;;;;;;;46.83;20.73;;;;;;;;;;4947009;28;20126;-60
2021/06/04 04:03:18;;;;;;;52.05;23.05;;;;;;;;;;4946382;28;20034;-59
2021/06/04 04:05:44;;;;;;;55.72;25.75;;;;;;;;;;4948606;28;20035;-59
2021/06/04 04:08:11;;;;;;;46.30;21.38;;;;;;;;;;4944861;28;20054;-59
2021/06/04 04:10:39;;;;;;;48.22;23.38;;;;;;;;;;4947658;28;20062;-59
2021/06/04 04:13:05;;;;;;;41.50;20.52;;;;;;;;;;4934974;28;20073;-59
2021/06/04 04:15:31;;;;;;;52.70;24.02;;;;;;;;;;4949540;28;20884;-60
2021/06/04 04:17:58;;;;;;;48.63;22.98;;;;;;;;;;4946006;28;20034;-60
2021/06/04 04:20:26;;;;;;;50.97;23.88;;;;;;;;;;4947675;28;20033;-59
2021/06/04 04:22:52;;;;;;;45.72;21.38;;;;;;;;;;4932862;28;20110;-59
2021/06/04 04:25:24;;;;;;;44.65;22.25;;;;;;;;;;4947840;28;20062;-60
2021/06/04 04:27:50;;;;;;;42.70;22.00;;;;;;;;;;4945542;28;20436;-59
2021/06/04 04:30:18;;;;;;;48.30;22.38;;;;;;;;;;4962372;28;20035;-59
2021/06/04 04:32:44;;;;;;;51.75;21.92;;;;;;;;;;4945644;28;20034;-59
2021/06/04 04:35:23;;;;;;;48.05;20.85;;;;;;;;;;4946718;28;20046;-60
2021/06/04 04:37:49;;;;;;;40.95;19.23;;;;;;;;;;4944531;28;20415;-59
2021/06/04 04:40:18;;;;;;;37.65;19.38;;;;;;;;;;4948239;28;20121;-60
2021/06/04 04:42:44;;;;;;;44.78;20.38;;;;;;;;;;4945134;28;20626;-60
2021/06/04 04:45:13;;;;;;;38.38;19.58;;;;;;;;;;4947418;28;20047;-59
2021/06/04 04:47:39;;;;;;;39.97;19.65;;;;;;;;;;4959649;28;20039;-60
2021/06/04 04:50:05;;;;;;;42.70;20.90;;;;;;;;;;4945735;28;20039;-60
2021/06/04 04:52:33;;;;;;;38.53;19.08;;;;;;;;;;4945940;28;20571;-60
2021/06/04 04:55:01;;;;;;;40.30;20.73;;;;;;;;;;4960046;28;20035;-60
2021/06/04 04:57:29;;;;;;;36.10;18.63;;;;;;;;;;4946416;28;20031;-59
2021/06/04 04:59:57;;;;;;;37.03;19.73;;;;;;;;;;4947140;28;20084;-59
2021/06/04 05:02:23;;;;;;;38.63;20.02;;;;;;;;;;4946517;28;20149;-59
2021/06/04 05:04:52;;;;;;;37.03;18.35;;;;;;;;;;4945553;28;20022;-59
2021/06/04 05:07:20;;;;;;;41.90;20.10;;;;;;;;;;4944866;28;20050;-59
2021/06/04 05:09:48;;;;;;;40.45;19.50;;;;;;;;;;4945046;28;20038;-59
2021/06/04 05:12:14;;;;;;;39.63;19.00;;;;;;;;;;4930894;28;20494;-59
2021/06/04 05:14:39;;;;;;;32.80;17.58;;;;;;;;;;4958231;28;20031;-60
2021/06/04 05:17:06;;;;;;;36.55;17.95;;;;;;;;;;4942854;28;20041;-60
2021/06/04 05:19:31;;;;;;;35.13;18.75;;;;;;;;;;4944908;28;20073;-61
2021/06/04 05:21:57;;;;;;;37.78;19.48;;;;;;;;;;4945172;28;20074;-60
2021/06/04 05:24:25;;;;;;;38.05;18.08;;;;;;;;;;4945771;28;20034;-61
2021/06/04 05:26:50;;;;;;;31.63;17.80;;;;;;;;;;4945634;28;20614;-60
2021/06/04 05:29:16;;;;;;;35.85;17.75;;;;;;;;;;4943518;28;21098;-60
2021/06/04 05:31:41;;;;;;;33.95;18.48;;;;;;;;;;4943378;28;20035;-60
2021/06/04 05:34:08;;;;;;;38.33;19.23;;;;;;;;;;4945204;28;20054;-60
2021/06/04 05:36:37;;;;;;;36.22;17.23;;;;;;;;;;4944764;28;20034;-61
2021/06/04 05:39:07;;;;;;;36.00;17.92;;;;;;;;;;4943127;28;20042;-60
2021/06/04 05:41:33;;;;;;;39.58;18.75;;;;;;;;;;4957816;28;20121;-62
2021/06/04 05:44:02;;;;;;;39.28;17.85;;;;;;;;;;4959767;28;20535;-60
2021/06/04 05:46:27;;;;;;;36.55;18.35;;;;;;;;;;4941866;28;20184;-60
2021/06/04 05:48:53;;;;;;;34.55;18.75;;;;;;;;;;4926032;28;20053;-62
2021/06/04 05:51:24;;;;;;;29.30;17.30;;;;;;;;;;4942274;28;20022;-61
2021/06/04 05:53:50;;;;;;;35.35;18.05;;;;;;;;;;4942621;28;22032;-61
2021/06/04 05:56:17;;;;;;;34.13;18.08;;;;;;;;;;4943692;28;20042;-60
2021/06/04 05:58:44;;;;;;;32.92;18.98;;;;;;;;;;4942813;28;20027;-61
2021/06/04 06:01:10;;;;;;;35.13;19.80;;;;;;;;;;4960454;28;20046;-61
2021/06/04 06:03:37;;;;;;;33.22;18.33;;;;;;;;;;4946047;28;20026;-61
2021/06/04 06:06:04;;;;;;;32.67;17.98;;;;;;;;;;4963825;28;20402;-61
2021/06/04 06:08:30;;;;;;;32.58;16.77;;;;;;;;;;4945486;28;20363;-61
2021/06/04 06:10:57;;;;;;;30.33;16.00;;;;;;;;;;4961578;28;20068;-59
2021/06/04 06:13:25;;;;;;;31.05;17.00;;;;;;;;;;4948061;28;20030;-61
2021/06/04 06:15:54;;;;;;;31.58;16.40;;;;;;;;;;4955622;28;20031;-61
2021/06/04 06:18:23;;;;;;;30.67;16.83;;;;;;;;;;4948556;28;20034;-61
2021/06/04 06:20:48;;;;;;;33.08;16.98;;;;;;;;;;4949971;28;21039;-61
2021/06/04 06:23:15;;;;;;;30.05;16.88;;;;;;;;;;4961763;28;20130;-61
2021/06/04 06:25:46;;;;;;;28.60;15.80;;;;;;;;;;4947260;28;20162;-60
2021/06/04 06:28:14;;;;;;;32.35;16.42;;;;;;;;;;4946119;28;20046;-61
2021/06/04 06:30:39;;;;;;;32.60;16.85;;;;;;;;;;4947840;28;20042;-61
2021/06/04 06:33:06;;;;;;;30.75;16.30;;;;;;;;;;4960531;28;20505;-61
2021/06/04 06:35:45;;;;;;;35.85;16.65;;;;;;;;;;4962835;28;20054;-61
2021/06/04 06:38:11;;;;;;;27.60;15.75;;;;;;;;;;4961744;28;20030;-62
2021/06/04 06:40:40;;;;;;;22.90;14.65;;;;;;;;;;4965304;28;20065;-61
2021/06/04 06:43:09;;;;;;;25.92;16.23;;;;;;;;;;4961979;28;20036;-61
2021/06/04 06:45:35;;;;;;;29.55;15.63;;;;;;;;;;4962870;28;20548;-61
2021/06/04 06:48:03;;;;;;;29.10;15.93;;;;;;;;;;4946774;28;20088;-62
2021/06/04 06:50:30;;;;;;;28.40;15.23;;;;;;;;;;4964279;28;20686;-61
2021/06/04 06:53:02;;;;;;;26.38;15.00;;;;;;;;;;4949759;28;20054;-61
2021/06/04 06:55:30;;;;;;;21.38;13.80;;;;;;;;;;4953023;28;20030;-61
2021/06/04 06:58:00;;;;;;;26.50;14.40;;;;;;;;;;4966677;28;20668;-61
2021/06/04 07:00:29;;;;;;;26.92;15.65;;;;;;;;;;4950528;28;20406;-61
2021/06/04 07:02:55;;;;;;;28.80;14.95;;;;;;;;;;4965635;28;20062;-61
2021/06/04 07:05:24;;;;;;;20.80;13.18;;;;;;;;;;4949595;28;20029;-62
2021/06/04 07:07:50;;;;;;;25.33;15.05;;;;;;;;;;4965333;28;20086;-62
2021/06/04 07:10:16;;;;;;;22.73;14.25;;;;;;;;;;4949529;28;20048;-62
2021/06/04 07:12:44;;;;;;;26.52;14.63;;;;;;;;;;4966806;28;20114;-62
2021/06/04 07:15:12;;;;;;;22.40;12.77;;;;;;;;;;4951396;28;20661;-62
2021/06/04 07:17:40;;;;;;;23.67;14.60;;;;;;;;;;4966577;28;20929;-62
2021/06/04 07:20:07;;;;;;;26.63;14.55;;;;;;;;;;4967896;28;20096;-61
2021/06/04 07:22:35;;;;;;;22.77;12.45;;;;;;;;;;4965295;28;20057;-62
2021/06/04 07:25:02;;;;;;;19.58;12.13;;;;;;;;;;4964959;28;20092;-62
2021/06/04 07:27:33;;;;;;;23.98;14.25;;;;;;;;;;4966400;28;20655;-62
2021/06/04 07:30:01;;;;;;;21.63;13.38;;;;;;;;;;4967066;28;20026;-62
2021/06/04 07:32:27;;;;;;;23.27;12.43;;;;;;;;;;4966297;28;20041;-62
2021/06/04 07:34:57;;;;;;;23.08;12.55;;;;;;;;;;4965530;28;20149;-63
2021/06/04 07:37:23;;;;;;;24.08;12.75;;;;;;;;;;4965696;28;20072;-62
2021/06/04 07:39:48;;;;;;;19.15;11.65;;;;;;;;;;4967120;28;20762;-61
2021/06/04 07:42:14;;;;;;;21.90;11.40;;;;;;;;;;4949091;28;20070;-62
2021/06/04 07:44:44;;;;;;;16.02;10.85;;;;;;;;;;4963061;28;20057;-62
2021/06/04 07:47:13;;;;;;;17.42;10.95;;;;;;;;;;4964815;28;20133;-61
2021/06/04 07:49:39;;;;;;;17.38;11.73;;;;;;;;;;4948083;28;20038;-61
2021/06/04 07:52:04;;;;;;;16.15;10.35;;;;;;;;;;4967358;28;20099;-62
2021/06/04 07:54:34;;;;;;;16.55;10.52;;;;;;;;;;4952407;28;20548;-62
2021/06/04 07:57:02;;;;;;;14.65;10.93;;;;;;;;;;4966973;28;20486;-61
2021/06/04 07:59:27;;;;;;;18.77;11.68;;;;;;;;;;4953036;28;20030;-63
2021/06/04 08:01:54;;;;;;;20.17;11.75;;;;;;;;;;4965045;28;20710;-61
2021/06/04 08:04:19;;;;;;;17.95;11.63;;;;;;;;;;4965634;28;20041;-62
2021/06/04 08:06:45;;;;;;;17.15;11.00;;;;;;;;;;4966203;28;20037;-62
2021/06/04 08:09:13;;;;;;;19.05;11.77;;;;;;;;;;4950450;28;20382;-62
2021/06/04 08:11:41;;;;;;;16.55;10.68;;;;;;;;;;4947078;28;20038;-61
2021/06/04 08:14:10;;;;;;;15.60;10.07;;;;;;;;;;4965808;28;20153;-62
2021/06/04 08:16:36;;;;;;;13.02;10.50;;;;;;;;;;4948954;28;20035;-62
2021/06/04 08:19:03;;;;;;;20.52;10.60;;;;;;;;;;4965153;28;20049;-64
2021/06/04 08:21:32;;;;;;;17.00;10.35;;;;;;;;;;4948217;28;20038;-60
2021/06/04 08:23:58;;;;;;;20.20;10.88;;;;;;;;;;4947979;28;20125;-62
2021/06/04 08:26:26;;;;;;;14.45;9.27;;;;;;;;;;4933686;28;20034;-61
2021/06/04 08:28:56;;;;;;;15.85;9.35;;;;;;;;;;4965459;28;20030;-62
2021/06/04 08:31:24;;;;;;;16.08;10.15;;;;;;;;;;4934822;28;20167;-62
2021/06/04 08:33:52;;;;;;;19.40;10.77;;;;;;;;;;4966113;28;20166;-62
2021/06/04 08:36:22;;;;;;;16.02;10.90;;;;;;;;;;4966108;28;20038;-63
2021/06/04 08:38:47;;;;;;;14.40;10.07;;;;;;;;;;4939336;28;20038;-62
2021/06/04 08:41:13;;;;;;;14.75;10.43;;;;;;;;;;4931534;28;20033;-61
2021/06/04 08:43:41;;;;;;;13.75;10.13;;;;;;;;;;4965883;28;20034;-62
2021/06/04 08:46:07;;;;;;;15.73;9.48;;;;;;;;;;4966124;28;20041;-62
2021/06/04 08:48:50;;;;;;;14.93;10.55;;;;;;;;;;4951078;28;20433;-62
2021/06/04 08:51:21;;;;;;;13.63;9.50;;;;;;;;;;4958606;28;20592;-62
2021/06/04 08:53:52;;;;;;;16.02;10.10;;;;;;;;;;4962773;28;20018;-61
2021/06/04 08:56:25;;;;;;;15.25;10.63;;;;;;;;;;4947511;28;20042;-62
2021/06/04 08:58:54;;;;;;;16.00;10.07;;;;;;;;;;4962429;28;20030;-63
2021/06/04 09:01:26;;;;;;;17.85;10.75;;;;;;;;;;4928534;28;20141;-61
2021/06/04 09:04:07;;;;;;;14.35;9.70;;;;;;;;;;4944698;28;20063;-61
2021/06/04 09:07:02;;;;;;;13.98;10.32;;;;;;;;;;4942545;28;20166;-61
2021/06/04 09:09:34;;;;;;;17.42;10.23;;;;;;;;;;4924426;28;20042;-62
2021/06/04 09:12:03;;;;;;;14.18;9.77;;;;;;;;;;4946300;28;20038;-62
2021/06/04 09:14:33;;;;;;;16.98;10.15;;;;;;;;;;4931181;28;20071;-62
2021/06/04 09:17:06;;;;;;;19.85;11.38;;;;;;;;;;4947135;28;20046;-61
2021/06/04 09:19:45;;;;;;;12.32;9.23;;;;;;;;;;4946590;28;20035;-63
2021/06/04 09:22:11;;;;;;;17.15;11.65;;;;;;;;;;4945110;28;20039;-59
2021/06/04 09:24:47;;;;;;;17.80;11.30;;;;;;;;;;4947785;28;22006;-59
2021/06/04 09:27:25;;;;;;;16.10;9.50;;;;;;;;;;4943945;28;20916;-61
2021/06/04 09:30:08;;;;;;;16.08;11.02;;;;;;;;;;4946292;28;20039;-60
2021/06/04 09:32:37;;;;;;;16.27;10.07;;;;;;;;;;4945327;28;20033;-61
2021/06/04 09:35:11;;;;;;;14.65;10.32;;;;;;;;;;4945503;28;20031;-61
2021/06/04 09:37:38;;;;;;;15.88;10.82;;;;;;;;;;4925495;28;20069;-62
2021/06/04 09:40:10;;;;;;;13.55;9.60;;;;;;;;;;4944505;28;20437;-62
2021/06/04 09:42:48;;;;;;;19.00;10.82;;;;;;;;;;4926811;28;20027;-62
2021/06/04 09:45:30;;;;;;;19.35;12.88;;;;;;;;;;4944513;28;20066;-61
2021/06/04 09:48:00;;;;;;;18.60;11.70;;;;;;;;;;4945377;28;20027;-62
2021/06/04 09:50:26;;;;;;;18.92;11.05;;;;;;;;;;4944475;28;20046;-62
2021/06/04 09:53:19;;;;;;;17.35;10.88;;;;;;;;;;4943523;28;21013;-62
2021/06/04 09:55:46;;;;;;;16.75;10.10;;;;;;;;;;4941621;28;20047;-62
2021/06/04 09:58:12;;;;;;;17.42;11.07;;;;;;;;;;4955881;28;20058;-62
2021/06/04 10:00:39;;;;;;;15.35;10.93;;;;;;;;;;4946762;28;20074;-61
2021/06/04 10:03:05;;;;;;;17.98;11.23;;;;;;;;;;4939475;28;20035;-61
2021/06/04 10:05:34;;;;;;;15.75;9.73;;;;;;;;;;4945712;28;20027;-63
2021/06/04 10:08:03;;;;;;;15.57;9.32;;;;;;;;;;4944934;28;20466;-61
2021/06/04 10:10:32;;;;;;;15.05;9.50;;;;;;;;;;4944180;28;20133;-61
2021/06/04 10:13:03;;;;;;;15.57;9.52;;;;;;;;;;4959526;28;20034;-62
2021/06/04 10:15:35;;;;;;;16.42;9.77;;;;;;;;;;4945314;28;20057;-62
2021/06/04 10:18:23;;;;;;;16.77;11.13;;;;;;;;;;4944959;28;20062;-62
2021/06/04 10:20:52;;;;;;;17.15;9.45;;;;;;;;;;4945877;28;20060;-62
2021/06/04 10:23:24;;;;;;;16.08;9.48;;;;;;;;;;4945096;28;20023;-63
2021/06/04 10:25:50;;;;;;;20.60;10.82;;;;;;;;;;4942587;28;20026;-61
2021/06/04 10:28:34;;;;;;;13.15;8.50;;;;;;;;;;4944438;28;20073;-63
2021/06/04 10:31:04;;;;;;;12.52;8.55;;;;;;;;;;4945817;28;20034;-61
2021/06/04 10:33:49;;;;;;;19.38;9.65;;;;;;;;;;4928912;28;22027;-60
2021/06/04 10:36:17;;;;;;;14.10;8.93;;;;;;;;;;4944028;28;20035;-62
2021/06/04 10:38:46;;;;;;;12.38;8.88;;;;;;;;;;4928964;28;20711;-62
2021/06/04 10:41:13;;;;;;;11.80;7.97;;;;;;;;;;4945358;28;20039;-62
2021/06/04 10:43:52;;;;;;;11.93;7.82;;;;;;;;;;4955379;28;20089;-63
2021/06/04 10:46:18;;;;;;;17.60;7.38;;;;;;;;;;4944969;28;20567;-63
2021/06/04 10:48:57;;;;;;;12.30;6.93;;;;;;;;;;4944585;28;20027;-62
2021/06/04 10:51:43;;;;;;;12.15;6.93;;;;;;;;;;4960019;28;20548;-62
2021/06/04 10:54:27;;;;;;;14.63;8.68;;;;;;;;;;4942146;28;20034;-62
2021/06/04 10:57:05;;;;;;;17.08;8.77;;;;;;;;;;4928067;28;20035;-62
2021/06/04 10:59:41;;;;;;;13.25;8.65;;;;;;;;;;4943790;28;20040;-62
2021/06/04 11:02:16;;;;;;;11.82;8.57;;;;;;;;;;4937235;28;20163;-63
2021/06/04 11:05:01;;;;;;;12.32;8.30;;;;;;;;;;4945606;28;20055;-63
2021/06/04 11:07:29;;;;;;;14.98;8.95;;;;;;;;;;4943408;28;20041;-61
2021/06/04 11:10:14;;;;;;;13.77;9.13;;;;;;;;;;4959634;28;20051;-62
2021/06/04 11:12:42;;;;;;;12.38;8.20;;;;;;;;;;4942308;28;20805;-62
2021/06/04 11:15:16;;;;;;;15.05;8.85;;;;;;;;;;4943854;28;21294;-62
2021/06/04 11:17:44;;;;;;;13.05;8.75;;;;;;;;;;4944082;28;21922;-62
2021/06/04 11:20:28;;;;;;;17.25;9.43;;;;;;;;;;4959580;28;20043;-61
2021/06/04 11:23:03;;;;;;;12.70;8.45;;;;;;;;;;4943897;28;20091;-63
2021/06/04 11:25:34;;;;;;;12.57;9.80;;;;;;;;;;4944947;28;20593;-62
2021/06/04 11:28:22;;;;;;;12.57;8.38;;;;;;;;;;4944873;28;20042;-62
2021/06/04 11:30:50;;;;;;;14.23;10.32;;;;;;;;;;4944032;28;20705;-64
2021/06/04 11:33:18;;;;;;;13.73;9.88;;;;;;;;;;4942196;28;20042;-63
2021/06/04 11:35:49;;;;;;;12.50;9.40;;;;;;;;;;4945049;28;20039;-63
2021/06/04 11:38:14;;;;;;;14.60;10.13;;;;;;;;;;4945651;28;20051;-62
2021/06/04 11:40:45;;;;;;;13.02;8.80;;;;;;;;;;4949156;28;20031;-62
2021/06/04 11:43:13;;;;;;;17.02;10.98;;;;;;;;;;4947713;28;20031;-62
2021/06/04 11:45:42;;;;;;;13.05;9.63;;;;;;;;;;4949739;28;20117;-62
2021/06/04 11:48:20;;;;;;;13.20;9.18;;;;;;;;;;4931413;28;20030;-63
2021/06/04 11:50:48;;;;;;;11.60;8.85;;;;;;;;;;4946482;28;22089;-63
2021/06/04 11:53:35;;;;;;;14.02;10.57;;;;;;;;;;4952164;28;20513;-63
2021/06/04 11:56:08;;;;;;;15.52;9.98;;;;;;;;;;4947226;28;20046;-61
2021/06/04 11:58:36;;;;;;;11.25;9.07;;;;;;;;;;4945220;28;20086;-62
2021/06/04 12:01:11;;;;;;;12.73;8.88;;;;;;;;;;4954421;28;21688;-62
2021/06/04 12:03:37;;;;;;;13.52;9.32;;;;;;;;;;4950366;28;20045;-62
2021/06/04 12:06:21;;;;;;;11.63;9.23;;;;;;;;;;4967042;28;20018;-62
2021/06/04 12:08:53;;;;;;;16.98;9.75;;;;;;;;;;4963991;28;20121;-61
2021/06/04 12:11:24;;;;;;;12.38;9.02;;;;;;;;;;4966116;28;20030;-62
2021/06/04 12:13:54;;;;;;;9.38;7.88;;;;;;;;;;4966242;28;20168;-62
2021/06/04 12:18:49;;;;;;;7.23;5.83;;;;;;;;;;4966234;28;20042;-62
2021/06/04 12:21:37;;;;;;;9.27;6.57;;;;;;;;;;4966540;28;20027;-61
2021/06/04 12:24:19;;;;;;;11.05;7.45;;;;;;;;;;4955135;28;20046;-63
2021/06/04 12:26:53;;;;;;;7.68;6.60;;;;;;;;;;4965216;28;20109;-62
2021/06/04 12:29:28;;;;;;;10.18;8.82;;;;;;;;;;4963304;28;20030;-60
2021/06/04 12:32:10;;;;;;;11.68;8.40;;;;;;;;;;4949349;28;20042;-64
2021/06/04 12:34:35;;;;;;;11.57;8.43;;;;;;;;;;4951037;28;20042;-62
2021/06/04 12:37:04;;;;;;;14.93;8.50;;;;;;;;;;4964685;28;20038;-61
2021/06/04 12:39:36;;;;;;;10.35;7.97;;;;;;;;;;4963179;28;20042;-62
2021/06/04 12:42:04;;;;;;;8.95;7.88;;;;;;;;;;4948008;28;20030;-61
2021/06/04 12:44:30;;;;;;;8.38;7.32;;;;;;;;;;4965675;28;20121;-61
2021/06/04 12:46:56;;;;;;;7.90;6.57;;;;;;;;;;4966991;28;20144;-61
2021/06/04 12:49:23;;;;;;;7.53;5.70;;;;;;;;;;4962844;28;20053;-63
2021/06/04 12:51:48;;;;;;;7.88;7.05;;;;;;;;;;4948273;28;20034;-60
2021/06/04 12:54:21;;;;;;;8.73;7.43;;;;;;;;;;4950094;28;20044;-62
2021/06/04 12:56:49;;;;;;;6.68;5.97;;;;;;;;;;4965704;28;20038;-61
2021/06/04 12:59:16;;;;;;;7.70;6.53;;;;;;;;;;4947650;28;20096;-63
2021/06/04 13:01:57;;;;;;;7.18;5.50;;;;;;;;;;4949803;28;20058;-62
2021/06/04 13:04:29;;;;;;;6.47;5.78;;;;;;;;;;4945066;28;20049;-61
2021/06/04 13:06:57;;;;;;;7.70;6.88;;;;;;;;;;4965627;28;20644;-61
2021/06/04 13:09:33;;;;;;;6.72;5.90;;;;;;;;;;4944770;28;20031;-61
2021/06/04 13:12:04;;;;;;;6.70;5.72;;;;;;;;;;4965300;28;20034;-62
2021/06/04 13:14:33;;;;;;;10.63;7.93;;;;;;;;;;4965525;28;20121;-62
2021/06/04 13:17:14;;;;;;;8.15;6.85;;;;;;;;;;4965475;28;20046;-62
2021/06/04 13:19:39;;;;;;;12.05;7.07;;;;;;;;;;4965031;28;20034;-62
2021/06/04 13:22:17;;;;;;;9.73;7.20;;;;;;;;;;4947869;28;20607;-62
2021/06/04 13:24:45;;;;;;;7.97;6.68;;;;;;;;;;4948227;28;21982;-62
2021/06/04 13:27:17;;;;;;;7.88;6.03;;;;;;;;;;4963919;28;20074;-62
2021/06/04 13:29:44;;;;;;;13.20;6.53;;;;;;;;;;4966043;28;20038;-62
2021/06/04 13:32:12;;;;;;;7.97;5.88;;;;;;;;;;4948920;28;20149;-62
2021/06/04 13:35:01;;;;;;;11.20;6.45;;;;;;;;;;4965097;28;20594;-60
2021/06/04 13:37:55;;;;;;;8.20;5.72;;;;;;;;;;4962561;28;20180;-62
2021/06/04 13:40:41;;;;;;;11.32;5.85;;;;;;;;;;4962030;28;20128;-62
2021/06/04 13:43:28;;;;;;;9.88;6.28;;;;;;;;;;4963111;28;20101;-63
2021/06/04 13:46:13;;;;;;;11.95;5.95;;;;;;;;;;4964458;28;20081;-62
2021/06/04 13:49:03;;;;;;;8.75;6.82;;;;;;;;;;4964778;28;20536;-62
2021/06/04 13:51:50;;;;;;;8.80;6.18;;;;;;;;;;4949222;28;20785;-62
2021/06/04 13:54:36;;;;;;;7.55;6.07;;;;;;;;;;4949865;28;20085;-62
2021/06/04 13:57:29;;;;;;;6.45;5.70;;;;;;;;;;4963606;28;20049;-61
2021/06/04 14:00:16;;;;;;;7.57;5.63;;;;;;;;;;4946645;28;20049;-62
2021/06/04 14:03:07;;;;;;;7.97;7.07;;;;;;;;;;4964929;28;20138;-62
2021/06/04 14:05:56;;;;;;;6.82;6.13;;;;;;;;;;4965454;28;20049;-62
2021/06/04 14:08:40;;;;;;;7.28;6.35;;;;;;;;;;4962981;28;20092;-61
2021/06/04 14:11:24;;;;;;;7.30;6.25;;;;;;;;;;4951000;28;20044;-61
2021/06/04 14:14:19;;;;;;;7.38;6.68;;;;;;;;;;4954349;28;20205;-61
2021/06/04 14:17:18;;;;;;;7.57;6.43;;;;;;;;;;4957996;28;20061;-62
2021/06/04 14:20:27;;;;;;;10.38;7.88;;;;;;;;;;4961614;28;20041;-62
2021/06/04 14:23:32;;;;;;;7.78;6.97;;;;;;;;;;4958041;28;20069;-62
2021/06/04 14:26:43;;;;;;;9.68;8.23;;;;;;;;;;4960781;28;20199;-63
2021/06/04 14:29:40;;;;;;;9.02;8.05;;;;;;;;;;4924114;28;20079;-61
2021/06/04 14:32:30;;;;;;;9.85;7.97;;;;;;;;;;4960705;28;20441;-61
2021/06/04 14:35:15;;;;;;;11.40;8.32;;;;;;;;;;4962489;28;20101;-62
2021/06/04 14:37:59;;;;;;;11.15;9.10;;;;;;;;;;4962932;28;20561;-63
2021/06/04 14:44:21;;;;;;;13.65;9.70;;;;;;;;;;4860693;29;20191;-63
2021/06/04 14:47:56;;;;;;;14.35;10.85;;;;;;;;;;4848671;29;20193;-63
2021/06/04 14:50:58;;;;;;;13.52;11.18;;;;;;;;;;4828735;29;20117;-62
2021/06/04 14:53:42;;;;;;;12.63;10.10;;;;;;;;;;4862509;28;20149;-62
2021/06/04 14:59:50;;;;;;;11.73;9.57;;;;;;;;;;4962037;28;21201;-62
2021/06/04 15:02:34;;;;;;;16.13;10.93;;;;;;;;;;4961174;28;20100;-62
2021/06/04 15:05:22;;;;;;;11.48;8.93;;;;;;;;;;4940952;28;20110;-62